X  Close Metar Aviation Weather Data     LGEL Elefsis Airport
Temperature
82°F Temperature
59°F Dewpoint
45% Humidity



Wind
1 MPH
2 KM/H
0 M/S
1 KTS



Calm
N
Current Conditions

Unknown Unknown
Pressure 1006.77 (hPa) - 29.73 (inHg)
Visibility 0 (mile) - 0 (km)
Airport
Airport-code LGEL

Location: Elefsis Airport
Distance: 77 (mi)

Metar:
LGEL 222250Z AUTO VRB01KT //// // ////// 28/15 Q1007 RE//

Time: 23-07-2024 01:50 EEST